Time;durP1;ratioP1;P1;durP2;ratioP2;P2;SDS_P1;SDS_P2;PMS_P1;PMS_P2;Temp;Humidity;BMP_temperature;BMP_pressure;BME280_temperature;BME280_humidity;BME280_pressure;Samples;Min_cycle;Max_cycle;Signal;HPM_P1;HPM_P2
2023/03/24 00:01:21;;;;;;;4.45;1.90;;;;;;;;;;5088379;28;20024;-59
2023/03/24 00:03:50;;;;;;;5.15;2.20;;;;;;;;;;5087543;28;20534;-59
2023/03/24 00:06:17;;;;;;;3.63;2.15;;;;;;;;;;5087435;28;20081;-60
2023/03/24 00:08:46;;;;;;;3.88;2.05;;;;;;;;;;5087571;28;20020;-61
2023/03/24 00:11:17;;;;;;;5.53;2.22;;;;;;;;;;5089879;28;20536;-60
2023/03/24 00:13:45;;;;;;;2.40;1.70;;;;;;;;;;5092413;28;20020;-60
2023/03/24 00:16:15;;;;;;;2.25;1.48;;;;;;;;;;5092514;28;20048;-59
2023/03/24 00:18:42;;;;;;;2.63;1.95;;;;;;;;;;5092532;28;20112;-60
2023/03/24 00:21:10;;;;;;;4.45;2.10;;;;;;;;;;5092380;28;20013;-61
2023/03/24 00:23:37;;;;;;;8.10;2.55;;;;;;;;;;5089143;28;20028;-60
2023/03/24 00:26:08;;;;;;;3.17;2.17;;;;;;;;;;5087070;28;20542;-60
2023/03/24 00:28:36;;;;;;;3.60;2.28;;;;;;;;;;5087376;28;20051;-60
2023/03/24 00:31:03;;;;;;;2.50;1.75;;;;;;;;;;5087709;28;20475;-60
2023/03/24 00:33:31;;;;;;;3.55;1.83;;;;;;;;;;5089695;28;20471;-59
2023/03/24 00:36:02;;;;;;;2.67;1.73;;;;;;;;;;5092039;28;20475;-59
2023/03/24 00:38:28;;;;;;;4.07;2.42;;;;;;;;;;5092754;28;20475;-59
2023/03/24 00:40:55;;;;;;;3.58;2.08;;;;;;;;;;5093446;28;20020;-59
2023/03/24 00:43:22;;;;;;;3.47;2.42;;;;;;;;;;5096733;28;20107;-59
2023/03/24 00:45:51;;;;;;;3.47;2.47;;;;;;;;;;5093758;28;20129;-59
2023/03/24 00:48:23;;;;;;;3.83;2.35;;;;;;;;;;5091313;28;20116;-59
2023/03/24 00:50:51;;;;;;;8.02;2.38;;;;;;;;;;5091239;28;20032;-59
2023/03/24 00:53:18;;;;;;;6.20;2.47;;;;;;;;;;5091450;28;20490;-59
2023/03/24 00:55:48;;;;;;;8.88;2.97;;;;;;;;;;5093526;28;20028;-59
2023/03/24 00:58:18;;;;;;;4.03;2.60;;;;;;;;;;5096275;28;20077;-59
2023/03/24 01:00:46;;;;;;;6.88;2.90;;;;;;;;;;5096089;28;20050;-59
2023/03/24 01:03:12;;;;;;;4.38;2.55;;;;;;;;;;5096591;28;20383;-59
2023/03/24 01:05:40;;;;;;;3.63;2.38;;;;;;;;;;5096365;28;20031;-58
2023/03/24 01:08:07;;;;;;;3.88;2.83;;;;;;;;;;5092600;28;20028;-58
2023/03/24 01:10:59;;;;;;;4.80;2.88;;;;;;;;;;5090847;28;20028;-59
2023/03/24 01:13:26;;;;;;;7.20;3.92;;;;;;;;;;5090125;28;20120;-59
2023/03/24 01:15:53;;;;;;;4.45;3.13;;;;;;;;;;5091161;28;20078;-59
2023/03/24 01:18:20;;;;;;;5.50;3.20;;;;;;;;;;5093363;28;20427;-59
2023/03/24 01:20:50;;;;;;;4.18;2.67;;;;;;;;;;5095638;28;20146;-59
2023/03/24 01:23:22;;;;;;;4.32;2.30;;;;;;;;;;5096033;28;20059;-59
2023/03/24 01:25:50;;;;;;;8.43;3.85;;;;;;;;;;5095257;28;20024;-59
2023/03/24 01:28:20;;;;;;;6.60;2.80;;;;;;;;;;5095545;28;20483;-59
2023/03/24 01:30:47;;;;;;;4.77;2.77;;;;;;;;;;5092173;28;20442;-58
2023/03/24 01:33:14;;;;;;;2.90;2.10;;;;;;;;;;5090233;28;20028;-59
2023/03/24 01:35:41;;;;;;;3.70;2.23;;;;;;;;;;5090042;28;20597;-59
2023/03/24 01:38:08;;;;;;;3.50;2.03;;;;;;;;;;5090125;28;20048;-58
2023/03/24 01:40:37;;;;;;;5.03;2.17;;;;;;;;;;5092656;28;20540;-59
2023/03/24 01:43:04;;;;;;;3.73;2.50;;;;;;;;;;5095161;28;20498;-60
2023/03/24 01:45:37;;;;;;;7.50;2.83;;;;;;;;;;5095486;28;20062;-59
2023/03/24 01:48:05;;;;;;;8.33;3.43;;;;;;;;;;5095223;28;20023;-58
2023/03/24 01:50:32;;;;;;;3.03;2.30;;;;;;;;;;5095165;28;20032;-59
2023/03/24 01:53:00;;;;;;;4.83;2.53;;;;;;;;;;5091790;28;20031;-59
2023/03/24 01:55:27;;;;;;;6.80;3.00;;;;;;;;;;5089815;28;20038;-60
2023/03/24 01:57:56;;;;;;;4.37;3.60;;;;;;;;;;5089921;28;20027;-58
2023/03/24 02:00:23;;;;;;;6.13;3.93;;;;;;;;;;5089609;28;20206;-58
2023/03/24 02:02:56;;;;;;;4.97;3.73;;;;;;;;;;5093433;28;20048;-58
2023/03/24 02:05:25;;;;;;;5.70;3.47;;;;;;;;;;5094929;28;20469;-59
2023/03/24 02:08:06;;;;;;;4.50;3.47;;;;;;;;;;5095221;28;20482;-59
2023/03/24 02:10:34;;;;;;;6.37;4.00;;;;;;;;;;5095036;28;20039;-58
2023/03/24 02:13:03;;;;;;;4.13;3.63;;;;;;;;;;5094972;28;20032;-58
2023/03/24 02:15:31;;;;;;;8.50;3.57;;;;;;;;;;5091498;28;20154;-59
2023/03/24 02:17:58;;;;;;;5.90;4.00;;;;;;;;;;5089082;28;20027;-58
2023/03/24 02:20:43;;;;;;;9.57;4.27;;;;;;;;;;5089484;28;20034;-59
2023/03/24 02:23:13;;;;;;;;;;;;;;;;;;5090120;28;20024;-58
2023/03/24 02:25:58;;;;;;;8.13;4.60;;;;;;;;;;5092818;28;19904;-59
2023/03/24 02:28:33;;;;;;;7.50;4.37;;;;;;;;;;5074460;28;20031;-59
2023/03/24 02:31:03;;;;;;;6.67;4.87;;;;;;;;;;5073618;28;20479;-59
2023/03/24 02:33:30;;;;;;;9.47;5.80;;;;;;;;;;5074491;28;20028;-59
2023/03/24 02:36:03;;;;;;;5.30;4.40;;;;;;;;;;5081440;28;20031;-59
2023/03/24 02:38:33;;;;;;;6.67;5.23;;;;;;;;;;5089552;28;20086;-59
2023/03/24 02:41:00;;;;;;;6.07;4.20;;;;;;;;;;5089332;28;20035;-59
2023/03/24 02:43:32;;;;;;;6.03;4.60;;;;;;;;;;5089146;28;20375;-59
2023/03/24 02:46:17;;;;;;;9.03;4.30;;;;;;;;;;5088398;28;20035;-59
2023/03/24 02:48:43;;;;;;;;;;;;;;;;;;5094349;28;20020;-59
2023/03/24 02:51:16;;;;;;;5.23;4.07;;;;;;;;;;5093616;28;20363;-58
2023/03/24 02:54:18;;;;;;;7.13;5.30;;;;;;;;;;5093810;28;20028;-59
2023/03/24 02:56:44;;;;;;;6.90;4.77;;;;;;;;;;5051723;28;20033;-59
2023/03/24 02:59:19;;;;;;;15.93;5.40;;;;;;;;;;5084379;28;20040;-59
2023/03/24 03:01:53;;;;;;;;;;;;;;;;;;5088783;28;20491;-59
2023/03/24 03:04:26;;;;;;;6.50;4.17;;;;;;;;;;5085670;28;19908;-59
2023/03/24 03:06:55;;;;;;;5.90;4.50;;;;;;;;;;5088193;28;20091;-58
2023/03/24 03:09:23;;;;;;;6.37;4.77;;;;;;;;;;5089211;28;20023;-59
2023/03/24 03:11:51;;;;;;;14.70;5.50;;;;;;;;;;5075478;28;20024;-59
2023/03/24 03:14:27;;;;;;;16.53;5.13;;;;;;;;;;5093697;28;20149;-59
2023/03/24 03:16:58;;;;;;;8.17;5.33;;;;;;;;;;5093195;28;20016;-59
2023/03/24 03:19:37;;;;;;;14.17;5.47;;;;;;;;;;5093240;28;20476;-59
2023/03/24 03:22:07;;;;;;;6.90;5.23;;;;;;;;;;5090989;28;20031;-59
2023/03/24 03:24:38;;;;;;;5.67;4.67;;;;;;;;;;5088364;28;20111;-59
2023/03/24 03:27:13;;;;;;;9.07;4.60;;;;;;;;;;5087236;28;20031;-59
2023/03/24 03:29:45;;;;;;;8.60;5.03;;;;;;;;;;5086727;28;20069;-59
2023/03/24 03:32:14;;;;;;;11.17;5.30;;;;;;;;;;5089841;28;20016;-59
2023/03/24 03:34:41;;;;;;;19.57;4.73;;;;;;;;;;5092128;28;20016;-58
2023/03/24 03:37:11;;;;;;;7.00;4.70;;;;;;;;;;5092661;28;20481;-59
2023/03/24 03:39:44;;;;;;;8.10;4.77;;;;;;;;;;5091945;28;20158;-59
2023/03/24 03:42:11;;;;;;;7.67;5.43;;;;;;;;;;5085258;28;20072;-59
2023/03/24 03:44:37;;;;;;;7.50;5.13;;;;;;;;;;5090213;28;20121;-58
2023/03/24 03:47:04;;;;;;;5.17;4.00;;;;;;;;;;5086888;28;20505;-59
2023/03/24 03:49:31;;;;;;;5.37;4.40;;;;;;;;;;5086540;28;20067;-59
2023/03/24 03:51:58;;;;;;;6.20;5.23;;;;;;;;;;5086059;28;20020;-59
2023/03/24 03:54:26;;;;;;;7.23;4.47;;;;;;;;;;5088375;28;20032;-59
2023/03/24 03:56:53;;;;;;;9.17;5.23;;;;;;;;;;5091501;28;20047;-59
2023/03/24 03:59:25;;;;;;;8.27;4.67;;;;;;;;;;5074016;28;20036;-59
2023/03/24 04:01:51;;;;;;;6.67;4.57;;;;;;;;;;5092748;28;20470;-59
2023/03/24 04:04:24;;;;;;;4.87;4.03;;;;;;;;;;5092672;28;20043;-58
2023/03/24 04:06:57;;;;;;;9.00;4.20;;;;;;;;;;5089638;28;20123;-59
2023/03/24 04:09:24;;;;;;;5.57;4.33;;;;;;;;;;5087361;28;20054;-59
2023/03/24 04:11:51;;;;;;;6.23;4.33;;;;;;;;;;5087047;28;20024;-59
2023/03/24 04:14:20;;;;;;;5.23;3.90;;;;;;;;;;5087434;28;20935;-59
2023/03/24 04:16:47;;;;;;;7.53;4.80;;;;;;;;;;5088647;28;20031;-58
2023/03/24 04:19:32;;;;;;;5.23;3.60;;;;;;;;;;5092551;28;20031;-58
2023/03/24 04:22:05;;;;;;;5.43;4.17;;;;;;;;;;5092589;28;20471;-59
2023/03/24 04:24:40;;;;;;;5.63;4.07;;;;;;;;;;5092483;28;20024;-59
2023/03/24 04:27:15;;;;;;;19.70;4.87;;;;;;;;;;5091939;28;20110;-58
2023/03/24 04:29:51;;;;;;;6.20;4.03;;;;;;;;;;5088784;28;20048;-59
2023/03/24 04:32:27;;;;;;;4.67;3.70;;;;;;;;;;5087401;28;20031;-59
2023/03/24 04:35:00;;;;;;;4.90;3.30;;;;;;;;;;5087188;28;20032;-59
2023/03/24 04:37:32;;;;;;;10.60;4.97;;;;;;;;;;5085976;28;20024;-59
2023/03/24 04:40:03;;;;;;;5.63;4.00;;;;;;;;;;5090639;28;20044;-60
2023/03/24 04:42:35;;;;;;;5.30;3.80;;;;;;;;;;5073748;28;20036;-59
2023/03/24 04:45:02;;;;;;;5.50;4.30;;;;;;;;;;5071749;28;20117;-59
2023/03/24 04:47:31;;;;;;;4.97;3.47;;;;;;;;;;5072061;28;20021;-59
2023/03/24 04:50:01;;;;;;;6.43;4.63;;;;;;;;;;5072086;28;20439;-59
2023/03/24 04:52:28;;;;;;;8.40;4.73;;;;;;;;;;5082392;28;20023;-59
2023/03/24 04:54:55;;;;;;;9.07;4.77;;;;;;;;;;5084409;28;20024;-60
2023/03/24 04:57:21;;;;;;;9.83;4.33;;;;;;;;;;5095298;28;20027;-58
2023/03/24 04:59:48;;;;;;;9.40;4.97;;;;;;;;;;5100227;28;20111;-58
2023/03/24 05:02:15;;;;;;;5.03;3.87;;;;;;;;;;5090187;28;20466;-58
2023/03/24 05:04:42;;;;;;;7.90;4.30;;;;;;;;;;5105036;28;20061;-60
2023/03/24 05:07:09;;;;;;;9.70;4.40;;;;;;;;;;5097024;28;20025;-59
2023/03/24 05:09:35;;;;;;;4.67;3.57;;;;;;;;;;5092000;28;20044;-59
2023/03/24 05:12:02;;;;;;;5.03;4.03;;;;;;;;;;5092046;28;20135;-59
2023/03/24 05:14:29;;;;;;;5.87;3.73;;;;;;;;;;5088628;28;20016;-59
2023/03/24 05:16:56;;;;;;;4.47;3.47;;;;;;;;;;5086371;28;20118;-59
2023/03/24 05:19:22;;;;;;;4.90;3.93;;;;;;;;;;5086317;28;20020;-60
2023/03/24 05:21:50;;;;;;;11.70;4.00;;;;;;;;;;5086749;28;20503;-59
2023/03/24 05:24:17;;;;;;;6.67;3.43;;;;;;;;;;5089592;28;20077;-60
2023/03/24 05:26:43;;;;;;;5.53;3.93;;;;;;;;;;5092304;28;20028;-59
2023/03/24 05:29:10;;;;;;;6.90;3.33;;;;;;;;;;5095457;28;20024;-59
2023/03/24 05:31:37;;;;;;;5.43;3.60;;;;;;;;;;5095737;28;20027;-59
2023/03/24 05:34:03;;;;;;;6.83;3.77;;;;;;;;;;5095628;28;20024;-59
2023/03/24 05:36:30;;;;;;;4.17;3.23;;;;;;;;;;5092378;28;20360;-59
2023/03/24 05:38:57;;;;;;;3.27;2.80;;;;;;;;;;5090055;28;20032;-59
2023/03/24 05:41:24;;;;;;;4.47;3.30;;;;;;;;;;5090316;28;20020;-59
2023/03/24 05:43:50;;;;;;;4.17;3.57;;;;;;;;;;5090369;28;20386;-59
2023/03/24 05:46:17;;;;;;;4.93;3.43;;;;;;;;;;5092315;28;20016;-59
2023/03/24 05:48:45;;;;;;;5.43;3.57;;;;;;;;;;5095373;28;20087;-59
2023/03/24 05:51:12;;;;;;;7.43;3.37;;;;;;;;;;5074993;28;20029;-59
2023/03/24 05:53:39;;;;;;;8.77;3.20;;;;;;;;;;5074815;28;20371;-59
2023/03/24 05:56:10;;;;;;;4.77;3.73;;;;;;;;;;5074996;28;20434;-59
2023/03/24 05:58:38;;;;;;;5.27;3.37;;;;;;;;;;5089174;28;20040;-60
2023/03/24 06:01:09;;;;;;;4.37;3.17;;;;;;;;;;5089744;28;20478;-59
2023/03/24 06:03:37;;;;;;;5.17;3.40;;;;;;;;;;5089917;28;20039;-59
2023/03/24 06:06:07;;;;;;;4.87;3.27;;;;;;;;;;5089948;28;20053;-59
2023/03/24 06:08:34;;;;;;;11.13;4.53;;;;;;;;;;5091254;28;20031;-59
2023/03/24 06:11:02;;;;;;;3.90;3.00;;;;;;;;;;5094841;28;20422;-60
2023/03/24 06:13:30;;;;;;;3.67;2.87;;;;;;;;;;5094923;28;20474;-60
2023/03/24 06:15:57;;;;;;;6.97;3.93;;;;;;;;;;5094796;28;20020;-59
2023/03/24 06:18:25;;;;;;;6.20;3.70;;;;;;;;;;5094394;28;20024;-60
2023/03/24 06:20:55;;;;;;;4.30;2.77;;;;;;;;;;5092415;28;20052;-59
2023/03/24 06:23:26;;;;;;;3.27;2.67;;;;;;;;;;5089104;28;20070;-60
2023/03/24 06:25:57;;;;;;;5.63;3.77;;;;;;;;;;5089221;28;20044;-59
2023/03/24 06:28:29;;;;;;;4.17;3.20;;;;;;;;;;5089742;28;20379;-60
2023/03/24 06:30:57;;;;;;;9.67;3.83;;;;;;;;;;5091642;28;20043;-59
2023/03/24 06:33:24;;;;;;;4.00;3.27;;;;;;;;;;5094520;28;20077;-60
2023/03/24 06:35:52;;;;;;;4.10;2.70;;;;;;;;;;5094201;28;20077;-59
2023/03/24 06:38:19;;;;;;;5.30;3.17;;;;;;;;;;5092667;28;20069;-59
2023/03/24 06:40:46;;;;;;;7.07;3.30;;;;;;;;;;5094349;28;20080;-59
2023/03/24 06:43:12;;;;;;;4.03;2.77;;;;;;;;;;5091741;28;20054;-59
2023/03/24 06:45:39;;;;;;;6.80;3.70;;;;;;;;;;5089158;28;20030;-59
2023/03/24 06:48:06;;;;;;;11.17;4.10;;;;;;;;;;5088719;28;20024;-60
2023/03/24 06:50:34;;;;;;;7.30;4.40;;;;;;;;;;5088915;28;20043;-59
2023/03/24 06:53:01;;;;;;;5.53;4.13;;;;;;;;;;5090565;28;20028;-59
2023/03/24 06:55:28;;;;;;;5.50;4.00;;;;;;;;;;5093522;28;20020;-60
2023/03/24 06:57:55;;;;;;;8.37;4.90;;;;;;;;;;5093942;28;20085;-59
2023/03/24 07:00:22;;;;;;;6.07;4.00;;;;;;;;;;5093756;28;20028;-60
2023/03/24 07:02:49;;;;;;;9.10;5.53;;;;;;;;;;5094150;28;20020;-60
2023/03/24 07:05:15;;;;;;;8.93;4.97;;;;;;;;;;5091956;28;20351;-60
2023/03/24 07:07:42;;;;;;;7.37;4.97;;;;;;;;;;5088654;28;20020;-60
2023/03/24 07:10:09;;;;;;;8.33;4.50;;;;;;;;;;5088382;28;20093;-60
2023/03/24 07:12:36;;;;;;;9.83;4.93;;;;;;;;;;5088030;28;20114;-60
2023/03/24 07:15:03;;;;;;;4.37;3.17;;;;;;;;;;5089719;28;20023;-60
2023/03/24 07:17:30;;;;;;;7.47;3.20;;;;;;;;;;5093627;28;20024;-59
2023/03/24 07:19:56;;;;;;;6.97;4.47;;;;;;;;;;5093743;28;20479;-60
2023/03/24 07:22:23;;;;;;;7.17;4.40;;;;;;;;;;5093619;28;20024;-59
2023/03/24 07:24:50;;;;;;;7.83;5.77;;;;;;;;;;5093346;28;20028;-60
2023/03/24 07:27:17;;;;;;;5.93;4.40;;;;;;;;;;5092082;28;20030;-60
2023/03/24 07:29:43;;;;;;;6.43;4.47;;;;;;;;;;5087647;28;20386;-60
2023/03/24 07:32:11;;;;;;;8.67;4.63;;;;;;;;;;5088229;28;20353;-60
2023/03/24 07:34:38;;;;;;;4.83;4.07;;;;;;;;;;5088108;28;20047;-60
2023/03/24 07:37:05;;;;;;;7.07;4.47;;;;;;;;;;5088177;28;20028;-60
2023/03/24 07:39:31;;;;;;;4.90;4.40;;;;;;;;;;5093218;28;20348;-60
2023/03/24 07:41:58;;;;;;;5.63;4.00;;;;;;;;;;5093177;28;20028;-60
2023/03/24 07:44:25;;;;;;;6.47;4.97;;;;;;;;;;5092984;28;20024;-60
2023/03/24 07:46:52;;;;;;;11.67;5.27;;;;;;;;;;5092653;28;20020;-60
2023/03/24 07:49:18;;;;;;;6.23;3.80;;;;;;;;;;5091714;28;20363;-60
2023/03/24 07:51:45;;;;;;;8.03;4.33;;;;;;;;;;5087718;28;20024;-60
2023/03/24 07:54:12;;;;;;;3.80;3.17;;;;;;;;;;5087858;28;20016;-60
2023/03/24 07:56:39;;;;;;;4.40;3.43;;;;;;;;;;5087736;28;20023;-60
2023/03/24 07:59:06;;;;;;;8.53;5.40;;;;;;;;;;5087601;28;20090;-60
2023/03/24 08:01:35;;;;;;;5.03;4.17;;;;;;;;;;5092497;28;20024;-60
2023/03/24 08:04:03;;;;;;;9.57;5.67;;;;;;;;;;5092061;28;20509;-60
2023/03/24 08:06:30;;;;;;;6.23;3.93;;;;;;;;;;5092810;28;20482;-60
2023/03/24 08:08:57;;;;;;;3.93;2.83;;;;;;;;;;5092667;28;20028;-59
2023/03/24 08:11:23;;;;;;;9.77;5.17;;;;;;;;;;5092679;28;20115;-60
2023/03/24 08:13:50;;;;;;;4.80;3.63;;;;;;;;;;5087312;28;20028;-60
2023/03/24 08:16:16;;;;;;;4.67;4.03;;;;;;;;;;5087504;28;20584;-61
2023/03/24 08:18:43;;;;;;;7.87;4.73;;;;;;;;;;5087336;28;20028;-60
2023/03/24 08:21:10;;;;;;;8.27;4.80;;;;;;;;;;5086951;28;20028;-60
2023/03/24 08:23:37;;;;;;;5.70;4.53;;;;;;;;;;5091967;28;20020;-59
2023/03/24 08:26:03;;;;;;;4.73;3.77;;;;;;;;;;5092962;28;20454;-59
2023/03/24 08:28:30;;;;;;;6.33;4.03;;;;;;;;;;5093617;28;20057;-59
2023/03/24 08:30:57;;;;;;;6.37;4.13;;;;;;;;;;5093859;28;20163;-59
2023/03/24 08:33:23;;;;;;;9.17;4.73;;;;;;;;;;5093604;28;20024;-60
2023/03/24 08:35:51;;;;;;;6.63;4.57;;;;;;;;;;5088628;28;20049;-59
2023/03/24 08:38:21;;;;;;;8.97;4.60;;;;;;;;;;5087757;28;20035;-59
2023/03/24 08:40:49;;;;;;;4.50;2.37;;;;;;;;;;5088376;28;20538;-59
2023/03/24 08:43:16;;;;;;;4.90;3.80;;;;;;;;;;5088110;28;20032;-59
2023/03/24 08:45:43;;;;;;;15.93;4.60;;;;;;;;;;5092419;28;20467;-59
2023/03/24 08:48:10;;;;;;;5.43;3.60;;;;;;;;;;5093938;28;20027;-59
2023/03/24 08:50:40;;;;;;;3.70;2.67;;;;;;;;;;5093414;28;20043;-59
2023/03/24 08:53:07;;;;;;;7.30;4.07;;;;;;;;;;5092981;28;20095;-59
2023/03/24 08:55:36;;;;;;;6.20;4.10;;;;;;;;;;5093538;28;20035;-59
2023/03/24 08:58:02;;;;;;;4.63;3.10;;;;;;;;;;5088691;28;20112;-59
2023/03/24 09:00:29;;;;;;;5.00;4.07;;;;;;;;;;5087971;28;20028;-59
2023/03/24 09:02:57;;;;;;;4.13;3.20;;;;;;;;;;5090802;28;20103;-59
2023/03/24 09:05:25;;;;;;;4.37;3.13;;;;;;;;;;5092043;28;20042;-59
2023/03/24 09:07:52;;;;;;;3.67;2.93;;;;;;;;;;5095745;28;20024;-59
2023/03/24 09:10:21;;;;;;;3.07;2.63;;;;;;;;;;5096981;28;20035;-59
2023/03/24 09:12:48;;;;;;;7.50;3.73;;;;;;;;;;5096802;28;20098;-59
2023/03/24 09:15:15;;;;;;;5.43;3.77;;;;;;;;;;5097225;28;20496;-59
2023/03/24 09:17:42;;;;;;;3.43;2.60;;;;;;;;;;5078300;28;20070;-59
2023/03/24 09:20:10;;;;;;;3.87;3.17;;;;;;;;;;5092125;28;20107;-60
2023/03/24 09:22:38;;;;;;;4.80;3.33;;;;;;;;;;5090621;28;20450;-60
2023/03/24 09:25:05;;;;;;;3.60;2.90;;;;;;;;;;5090140;28;20086;-60
2023/03/24 09:27:32;;;;;;;4.57;3.50;;;;;;;;;;5090502;28;20020;-60
2023/03/24 09:29:58;;;;;;;7.13;3.10;;;;;;;;;;5093896;28;20032;-59
2023/03/24 09:32:25;;;;;;;6.23;4.40;;;;;;;;;;5095814;28;20016;-60
2023/03/24 09:34:52;;;;;;;3.43;2.97;;;;;;;;;;5095154;28;20035;-59
2023/03/24 09:37:19;;;;;;;7.40;4.53;;;;;;;;;;5095437;28;20032;-59
2023/03/24 09:39:45;;;;;;;5.47;4.20;;;;;;;;;;5095622;28;21073;-59
2023/03/24 09:42:32;;;;;;;5.37;3.63;;;;;;;;;;5091419;28;20107;-59
2023/03/24 09:45:04;;;;;;;4.27;3.10;;;;;;;;;;5090023;28;20474;-61
2023/03/24 09:47:33;;;;;;;8.60;4.70;;;;;;;;;;5090305;28;20285;-59
2023/03/24 09:50:02;;;;;;;18.03;5.20;;;;;;;;;;5089995;28;20050;-61
2023/03/24 09:52:35;;;;;;;5.43;2.87;;;;;;;;;;5093493;28;20037;-59
2023/03/24 09:55:02;;;;;;;4.73;2.60;;;;;;;;;;5095316;28;20464;-59
2023/03/24 09:57:38;;;;;;;3.83;3.13;;;;;;;;;;5095009;28;20035;-60
2023/03/24 10:00:15;;;;;;;4.00;3.47;;;;;;;;;;5095289;28;20024;-59
2023/03/24 10:02:42;;;;;;;7.07;3.10;;;;;;;;;;5095202;28;20031;-59
2023/03/24 10:05:16;;;;;;;5.77;4.50;;;;;;;;;;5090024;28;20054;-60
2023/03/24 10:08:18;;;;;;;9.10;2.90;;;;;;;;;;5089601;28;20036;-60
2023/03/24 10:10:44;;;;;;;3.63;2.50;;;;;;;;;;5046648;28;20036;-60
2023/03/24 10:13:34;;;;;;;3.13;2.77;;;;;;;;;;5081176;28;20040;-59
2023/03/24 10:16:21;;;;;;;5.90;4.00;;;;;;;;;;5076558;28;20035;-59
2023/03/24 10:19:13;;;;;;;4.80;3.70;;;;;;;;;;5094205;28;20020;-59
2023/03/24 10:21:42;;;;;;;3.37;2.60;;;;;;;;;;5092607;28;20102;-60
2023/03/24 10:24:12;;;;;;;3.60;2.73;;;;;;;;;;5094792;28;20356;-59
2023/03/24 10:26:38;;;;;;;6.30;3.63;;;;;;;;;;5091639;28;20099;-59
2023/03/24 10:29:11;;;;;;;5.57;3.87;;;;;;;;;;5089365;28;20032;-60
2023/03/24 10:31:39;;;;;;;5.70;4.37;;;;;;;;;;5089307;28;20028;-60
2023/03/24 10:34:09;;;;;;;4.80;4.00;;;;;;;;;;5088984;28;20399;-60
2023/03/24 10:36:38;;;;;;;6.57;3.80;;;;;;;;;;5091910;28;20028;-60
2023/03/24 10:39:05;;;;;;;4.00;3.27;;;;;;;;;;5094642;28;20048;-59
2023/03/24 10:41:33;;;;;;;7.43;4.07;;;;;;;;;;5094102;28;20023;-60
2023/03/24 10:44:00;;;;;;;3.63;3.07;;;;;;;;;;5094183;28;20016;-60
2023/03/24 10:46:30;;;;;;;4.90;3.20;;;;;;;;;;5094379;28;20026;-59
2023/03/24 10:49:14;;;;;;;4.43;3.47;;;;;;;;;;5091158;28;20047;-60
2023/03/24 10:51:45;;;;;;;4.87;3.50;;;;;;;;;;5088757;28;20558;-60
2023/03/24 10:54:15;;;;;;;3.67;2.53;;;;;;;;;;5088481;28;20020;-60
2023/03/24 10:56:44;;;;;;;4.27;3.33;;;;;;;;;;5088810;28;20518;-59
2023/03/24 10:59:28;;;;;;;36.50;3.97;;;;;;;;;;5091931;28;20036;-59
2023/03/24 11:02:10;;;;;;;6.83;4.80;;;;;;;;;;5093957;28;20027;-59
2023/03/24 11:04:40;;;;;;;6.63;4.37;;;;;;;;;;5093919;28;20020;-59
2023/03/24 11:07:17;;;;;;;5.47;4.37;;;;;;;;;;5093768;28;20016;-60
2023/03/24 11:09:45;;;;;;;4.43;3.30;;;;;;;;;;5093378;28;20471;-60
2023/03/24 11:12:22;;;;;;;5.93;4.33;;;;;;;;;;5088510;28;20028;-59
2023/03/24 11:14:49;;;;;;;5.73;4.53;;;;;;;;;;5088662;28;20029;-60
2023/03/24 11:17:16;;;;;;;5.77;3.60;;;;;;;;;;5088572;28;20573;-59
2023/03/24 11:19:53;;;;;;;3.50;2.90;;;;;;;;;;5088539;28;20535;-59
2023/03/24 11:22:20;;;;;;;7.27;4.57;;;;;;;;;;5093401;28;20420;-59
2023/03/24 11:24:50;;;;;;;7.77;4.20;;;;;;;;;;5092705;28;20028;-59
2023/03/24 11:27:17;;;;;;;5.80;4.57;;;;;;;;;;5092926;28;20027;-59
2023/03/24 11:29:45;;;;;;;5.27;3.30;;;;;;;;;;5093309;28;20020;-60
2023/03/24 11:32:23;;;;;;;8.10;6.23;;;;;;;;;;5093266;28;20024;-60
2023/03/24 11:34:55;;;;;;;6.37;5.17;;;;;;;;;;5088295;28;20028;-59
2023/03/24 11:37:23;;;;;;;5.90;4.93;;;;;;;;;;5088224;28;20103;-59
2023/03/24 11:40:15;;;;;;;8.10;4.90;;;;;;;;;;5087241;28;20027;-59
2023/03/24 11:42:50;;;;;;;6.67;4.60;;;;;;;;;;5089087;28;20048;-59
2023/03/24 11:45:34;;;;;;;7.00;4.68;;;;;;;;;;5093191;28;20020;-60
2023/03/24 11:48:02;;;;;;;19.13;5.80;;;;;;;;;;5093351;28;20510;-59
2023/03/24 11:50:30;;;;;;;4.20;3.10;;;;;;;;;;5093015;28;20040;-59
2023/03/24 11:53:00;;;;;;;8.50;3.97;;;;;;;;;;5093193;28;20020;-59
2023/03/24 11:55:30;;;;;;;14.93;6.00;;;;;;;;;;5090320;28;20427;-59
2023/03/24 11:58:20;;;;;;;18.13;3.93;;;;;;;;;;5087760;28;20024;-60
2023/03/24 12:00:56;;;;;;;9.10;5.43;;;;;;;;;;5082289;28;20537;-59
2023/03/24 12:03:46;;;;;;;5.83;4.37;;;;;;;;;;5087668;28;20028;-59
2023/03/24 12:06:13;;;;;;;9.67;4.80;;;;;;;;;;5086492;28;20468;-59
2023/03/24 12:08:52;;;;;;;5.73;4.47;;;;;;;;;;5093502;28;20059;-59
2023/03/24 12:11:38;;;;;;;5.47;4.40;;;;;;;;;;5093573;28;20055;-59
2023/03/24 12:14:05;;;;;;;8.18;5.00;;;;;;;;;;5092723;28;20501;-59
2023/03/24 12:16:38;;;;;;;5.30;3.87;;;;;;;;;;5093140;28;20479;-59
2023/03/24 12:19:27;;;;;;;8.17;4.70;;;;;;;;;;5088108;28;20024;-59
2023/03/24 12:21:56;;;;;;;7.00;5.20;;;;;;;;;;5088178;28;20058;-59
2023/03/24 12:24:40;;;;;;;6.00;4.30;;;;;;;;;;5087787;28;20027;-59
2023/03/24 12:27:13;;;;;;;6.63;4.87;;;;;;;;;;5088505;28;20032;-59
2023/03/24 12:30:04;;;;;;;12.30;4.70;;;;;;;;;;5093068;28;20028;-59
2023/03/24 12:32:42;;;;;;;7.10;4.23;;;;;;;;;;5087781;28;20028;-59
2023/03/24 12:35:12;;;;;;;5.77;4.30;;;;;;;;;;5093048;28;20095;-59
2023/03/24 12:37:49;;;;;;;5.20;3.97;;;;;;;;;;5092292;28;20028;-59
2023/03/24 12:40:34;;;;;;;7.53;4.47;;;;;;;;;;5088920;28;20028;-60
2023/03/24 12:43:15;;;;;;;10.00;4.78;;;;;;;;;;5087045;28;20504;-59
2023/03/24 12:45:48;;;;;;;15.40;6.37;;;;;;;;;;5087139;28;20024;-59
2023/03/24 12:48:20;;;;;;;8.80;5.53;;;;;;;;;;5086488;28;20072;-59
2023/03/24 12:50:57;;;;;;;8.90;6.53;;;;;;;;;;5090291;28;20036;-59
2023/03/24 12:53:35;;;;;;;5.13;4.13;;;;;;;;;;5092284;28;20169;-59
2023/03/24 12:56:15;;;;;;;8.30;5.07;;;;;;;;;;5091844;28;20024;-59
2023/03/24 12:58:43;;;;;;;8.30;6.17;;;;;;;;;;5092132;28;20035;-60
2023/03/24 13:01:28;;;;;;;6.33;5.70;;;;;;;;;;5091992;28;20482;-60
2023/03/24 13:04:04;;;;;;;10.43;8.20;;;;;;;;;;5086890;28;20081;-59
2023/03/24 13:06:34;;;;;;;7.53;5.37;;;;;;;;;;5086217;28;20028;-59
2023/03/24 13:09:02;;;;;;;15.07;8.40;;;;;;;;;;5086775;28;20030;-59
2023/03/24 13:11:34;;;;;;;5.53;4.73;;;;;;;;;;5086940;28;20067;-59
2023/03/24 13:14:03;;;;;;;7.33;5.37;;;;;;;;;;5091957;28;20439;-59
2023/03/24 13:16:34;;;;;;;11.27;6.40;;;;;;;;;;5091259;28;20043;-60
2023/03/24 13:19:02;;;;;;;9.83;6.43;;;;;;;;;;5091710;28;20024;-59
2023/03/24 13:21:32;;;;;;;16.90;6.47;;;;;;;;;;5091628;28;20032;-59
2023/03/24 13:24:12;;;;;;;16.07;8.47;;;;;;;;;;5090857;28;20032;-60
2023/03/24 13:26:41;;;;;;;14.40;8.83;;;;;;;;;;5085814;28;20032;-60
2023/03/24 13:29:10;;;;;;;12.00;7.60;;;;;;;;;;5086833;28;20024;-60
2023/03/24 13:31:42;;;;;;;12.73;6.93;;;;;;;;;;5085366;28;20043;-60
2023/03/24 13:34:20;;;;;;;8.23;6.53;;;;;;;;;;5087328;28;20119;-59
2023/03/24 13:36:51;;;;;;;14.67;8.73;;;;;;;;;;5091957;28;20091;-60
2023/03/24 13:39:20;;;;;;;12.27;7.70;;;;;;;;;;5091482;28;20020;-59
2023/03/24 13:41:49;;;;;;;17.20;8.60;;;;;;;;;;5091095;28;20032;-60
2023/03/24 13:44:22;;;;;;;27.27;7.27;;;;;;;;;;5091214;28;20161;-60
2023/03/24 13:47:09;;;;;;;12.20;4.97;;;;;;;;;;5089163;28;20024;-59
2023/03/24 13:49:36;;;;;;;10.93;6.67;;;;;;;;;;5089693;28;20032;-60
2023/03/24 13:52:05;;;;;;;8.90;7.13;;;;;;;;;;5089651;28;20745;-60
2023/03/24 13:54:35;;;;;;;7.37;5.60;;;;;;;;;;5090041;28;20020;-60
2023/03/24 13:57:14;;;;;;;6.47;4.93;;;;;;;;;;5092633;28;20024;-59
2023/03/24 14:00:10;;;;;;;16.17;7.33;;;;;;;;;;5094964;28;20046;-60
2023/03/24 14:02:41;;;;;;;12.93;7.07;;;;;;;;;;5094931;28;20090;-60
2023/03/24 14:05:23;;;;;;;15.60;7.87;;;;;;;;;;5094492;28;20500;-60
2023/03/24 14:07:50;;;;;;;12.00;6.80;;;;;;;;;;5094874;28;20028;-60
2023/03/24 14:10:19;;;;;;;17.23;7.93;;;;;;;;;;5071764;28;20032;-60
2023/03/24 14:12:58;;;;;;;14.17;6.80;;;;;;;;;;5089391;28;20036;-60
2023/03/24 14:15:34;;;;;;;9.87;6.03;;;;;;;;;;5089460;28;20028;-60
2023/03/24 14:18:19;;;;;;;21.83;7.50;;;;;;;;;;5089299;28;20020;-60
2023/03/24 14:20:46;;;;;;;;;;;;;;;;;;5076929;28;20088;-60
2023/03/24 14:23:32;;;;;;;7.40;5.57;;;;;;;;;;5094590;28;20315;-60
2023/03/24 14:25:59;;;;;;;8.30;5.30;;;;;;;;;;5093983;28;20478;-60
2023/03/24 14:28:36;;;;;;;6.23;4.73;;;;;;;;;;5094657;28;20027;-60
2023/03/24 14:31:03;;;;;;;13.33;4.93;;;;;;;;;;5092502;28;21340;-61
2023/03/24 14:33:30;;;;;;;7.37;4.83;;;;;;;;;;5089168;28;20028;-60
2023/03/24 14:36:04;;;;;;;6.63;4.47;;;;;;;;;;5089459;28;20129;-60
2023/03/24 14:38:35;;;;;;;8.40;4.90;;;;;;;;;;5089341;28;20047;-61
2023/03/24 14:41:06;;;;;;;6.90;5.07;;;;;;;;;;5090638;28;20024;-60
2023/03/24 14:43:39;;;;;;;12.30;4.93;;;;;;;;;;5093786;28;20027;-60
2023/03/24 14:46:25;;;;;;;6.33;4.53;;;;;;;;;;5094149;28;20036;-60
2023/03/24 14:48:52;;;;;;;5.77;3.40;;;;;;;;;;5094197;28;20056;-61
2023/03/24 14:51:19;;;;;;;12.77;4.63;;;;;;;;;;5093855;28;20093;-61
2023/03/24 14:53:46;;;;;;;11.67;4.00;;;;;;;;;;5090649;28;20391;-61
2023/03/24 14:56:14;;;;;;;4.60;3.63;;;;;;;;;;5089052;28;20162;-61
2023/03/24 14:58:42;;;;;;;12.37;4.50;;;;;;;;;;5088359;28;20024;-61
2023/03/24 15:01:10;;;;;;;8.93;4.80;;;;;;;;;;5088067;28;20483;-61
2023/03/24 15:04:10;;;;;;;10.17;4.97;;;;;;;;;;5090809;28;20501;-61